首页
METAR-TAF:

METAR-TAF

机场 :

阿里什, 埃及

纬度: 31-05N, 经度: 033-49E, 海拔: 31米

当前天气观测

该预报发布于1小时和12分钟前的02:00 UTC
风速6节,风向东南
温度 17°C
湿度 82%
气压 1010 hPa
能见度10公里或以上
1500米以下无云,无积雨云

METAR: HEAR 170200Z 13006KT CAVOK 17/14 Q1010 NOSIG

时间: 05:12 (03:12 UTC)

预报

该预报发布于4小时和12分钟前的23:00 UTC
预报有效从17日的 00点(UTC)到 18日的 06点(UTC)
风速6节,风向
能見度: 6000
散云层高于2500英尺
短暂存在
从 17日的 00点(UTC)到 17日的 06点(UTC)
风速3节,风向多变
能見度: 3000
轻雾,

TAF: HEAR 162300Z 1700/1806 18006KT 6000 SCT025 TEMPO 1700/1706 VRB03KT 3000 BR

超过4000个机场的气象观测和天气预报(METAR&TAF报告)。

可查询的气象台以黄色和红色小点在地图上表示。

将鼠标移到小点上方,可查看气象台名称。

然后点击查看天气观测和预报。

如需切换地图:点击带黑十字的绿色按钮放大地图;点击带横线的绿色按钮缩小地图;或者点击绿色箭头查看邻近地区的地图。


METAR-TAF: